• Join FlightAware (Why Join?)
  • Login
  • US Flag 
10:41PM EDT


 

Airport Tracker/Info


-or-


 

Live Flight TrackerFlight Track Log ✈ AAY800 ✈ 22-Mar-2014 ✈ KPIE - KTOL

Flight Track Log - Related Links

Times and Time Zones

All times are in EDT time to prevent confusion due to time zone crossing. See the AAY800 flight status page for this flight to view local times or setup timezone preferences in your user account.

Time Position Orientation Groundspeed Altitude Reporting Facility
EDT Latitude Longitude Course Direction KTS MPH feet Rate Location/Type
09:47AM 27.9000 -82.6833 180° South 162 186 800  Level Tampa TRACON
09:48AM 27.8333 -82.6833 180° South 202 232 3,100 1,740 Climbing Tampa TRACON
09:51AM 27.8556 -82.7611 288° West 115 132 6,900 1,920 Climbing Jacksonville Center
09:52AM 27.9350 -82.7375 15° North 170 196 9,300 1,860 Climbing Jacksonville Center
09:53AM 28.0206 -82.7186 11° North 243 280 10,700 1,560 Climbing Jacksonville Center
09:54AM 28.1247 -82.6925 12° North 318 366 12,500 1,980 Climbing Jacksonville Center
09:55AM 28.2333 -82.6664 12° North 362 417 14,700 2,100 Climbing Jacksonville Center
09:56AM 28.3458 -82.6450 North 393 452 16,800 2,100 Climbing Jacksonville Center
09:57AM 28.4647 -82.6400 North 412 474 18,900 1,860 Climbing Jacksonville Center
09:58AM 28.5836 -82.6347 North 423 487 20,600 1,680 Climbing Jacksonville Center
09:59AM 28.7172 -82.6297 North 428 493 22,300 1,500 Climbing Jacksonville Center
10:00AM 28.8425 -82.6247 North 428 493 23,600 1,560 Climbing Jacksonville Center
10:01AM 28.9697 -82.6172 North 444 511 25,500 1,980 Climbing Jacksonville Center
10:02AM 29.0908 -82.6122 North 444 511 27,600 1,920 Climbing Jacksonville Center
10:03AM 29.2097 -82.6094 North 431 496 29,400 1,140 Climbing Jacksonville Center
10:04AM 29.3289 -82.6019 North 431 496 29,900 420 Climbing Jacksonville Center
10:05AM 29.4436 -82.5969 North 419 482 30,300 600 Climbing Jacksonville Center
10:06AM 29.5625 -82.5917 North 419 482 31,100 900 Climbing Jacksonville Center
10:07AM 29.6817 -82.5867 North 419 482 32,100 900 Climbing Jacksonville Center
10:08AM 29.8006 -82.5814 North 419 482 33,000 420 Climbing Jacksonville Center
10:09AM 29.9153 -82.5739 North 419 482 33,000  Level Jacksonville Center
10:10AM 30.0322 -82.5736 360° North 419 482 33,000 -60 Level Jacksonville Center
10:11AM 30.1472 -82.5683 North 419 482 32,900 -60 Descending Jacksonville Center
10:12AM 30.2639 -82.5631 North 419 482 32,900  Level Jacksonville Center
10:13AM 30.3831 -82.5603 North 419 482 32,900  Level Jacksonville Center
10:14AM 30.4978 -82.5550 North 419 482 32,900  Level Jacksonville Center
10:15AM 30.6128 -82.5619 357° North 419 482 32,900  Level Jacksonville Center
10:16AM 30.7214 -82.5906 347° North 408 470 32,900  Level Jacksonville Center
10:17AM 30.8278 -82.6144 349° North 395 455 32,900  Level Jacksonville Center
10:18AM 30.9322 -82.6408 348° North 389 448 32,900  Level Jacksonville Center
10:19AM 31.0408 -82.6672 348° North 389 448 32,900  Level Jacksonville Center
10:20AM 31.1392 -82.6864 351° North 394 453 33,000  Climbing Jacksonville Center
10:21AM 31.2497 -82.7103 350° North 394 453 33,000  Level Jacksonville Center
10:22AM 31.3542 -82.7394 347° North 389 448 33,000  Level Jacksonville Center
10:23AM 31.4733 -82.7683 348° North 390 449 33,000  Level Jacksonville Center
10:24AM 31.5797 -82.7903 350° North 390 449 33,000  Level Jacksonville Center
10:25AM 31.7492 -82.8347 347° North 390 449 33,000  Level Atlanta Center
10:26AM 31.8558 -82.8603 348° North 390 449 33,000  Level Atlanta Center
10:27AM 31.9625 -82.8858 349° North 390 449 33,000  Level Atlanta Center
10:28AM 32.0669 -82.9114 348° North 390 449 33,000  Level Atlanta Center
10:29AM 32.1717 -82.9397 347° North 390 449 33,000  Level Atlanta Center
10:30AM 32.2719 -82.9653 348° North 383 441 33,000  Level Atlanta Center
10:31AM 32.3744 -82.9911 348° North 372 428 33,000 300 Level Atlanta Center
10:32AM 32.4769 -83.0144 349° North 372 428 33,700 480 Climbing Atlanta Center
10:33AM 32.5775 -83.0406 348° North 372 428 34,000 120 Climbing Atlanta Center
10:34AM 32.6758 -83.0642 349° North 372 428 34,000  Level Atlanta Center
10:35AM 32.7761 -83.0878 349° North 367 422 34,000  Level Atlanta Center
10:36AM 32.8808 -83.1161 347° North 355 409 34,000  Level Atlanta Center
10:37AM 32.9747 -83.1400 348° North 365 420 34,000  Level Atlanta Center
10:38AM 33.0836 -83.1686 348° North 365 420 34,000  Level Atlanta Center
10:39AM 33.1819 -83.1950 347° North 359 413 34,000  Level Atlanta Center
10:40AM 33.2800 -83.2164 350° North 359 413 34,000  Level Atlanta Center
10:41AM 33.3825 -83.2403 349° North 365 420 34,000  Level Atlanta Center
10:42AM 33.4828 -83.2667 348° North 365 420 34,000  Level Atlanta Center
10:43AM 33.5833 -83.2933 348° North 365 420 34,000  Level Atlanta Center
10:44AM 33.6753 -83.3175 348° North 376 433 34,000  Level Atlanta Center
10:45AM 33.7797 -83.3417 349° North 376 433 34,000  Level Atlanta Center
10:46AM 33.8842 -83.3683 348° North 376 433 34,000  Level Atlanta Center
10:47AM 33.9886 -83.3950 348° North 371 427 34,000  Level Atlanta Center
10:48AM 34.0933 -83.4192 349° North 376 433 34,000  Level Atlanta Center
10:49AM 34.1978 -83.4461 348° North 376 433 34,000  Level Atlanta Center
10:50AM 34.3022 -83.4731 348° North 376 433 34,000  Level Atlanta Center
10:51AM 34.4089 -83.5000 348° North 381 438 34,000  Level Atlanta Center
10:52AM 34.5175 -83.5294 347° North 387 445 34,000  Level Atlanta Center
10:53AM 34.6344 -83.5567 349° North 392 451 34,000  Level Atlanta Center
10:54AM 34.7431 -83.5864 347° North 392 451 34,000  Level Atlanta Center
10:55AM 34.8517 -83.6136 348° North 392 451 34,000  Level Atlanta Center
10:56AM 34.9603 -83.6458 346° North 392 451 34,000  Level Atlanta Center
10:57AM 35.0708 -83.6783 346° North 397 457 34,000  Level Atlanta Center
10:58AM 35.1836 -83.7058 349° North 397 457 34,000  Level Atlanta Center
10:59AM 35.2964 -83.7308 350° North 402 463 34,000  Level Atlanta Center
11:00AM 35.4153 -83.7406 356° North 414 476 34,000  Level Atlanta Center
11:01AM 35.5344 -83.7453 358° North 419 482 34,000  Level Atlanta Center
11:02AM 35.6533 -83.7525 357° North 424 488 34,000  Level Atlanta Center
11:03AM 35.7722 -83.7572 358° North 424 488 34,000  Level Atlanta Center
11:04AM 35.8889 -83.7644 357° North 424 488 34,000  Level Atlanta Center
11:05AM 36.0081 -83.7717 357° North 424 488 34,000  Level Atlanta Center
11:06AM 36.1247 -83.7792 357° North 424 488 34,000  Level Atlanta Center
11:07AM 36.2161 -83.7819 359° North 425 489 34,000  Level Indianapolis Center
11:08AM 36.3314 -83.7894 357° North 421 484 34,000  Level Indianapolis Center
11:09AM 36.4458 -83.7958 357° North 418 481 34,000  Level Indianapolis Center
11:10AM 36.5567 -83.8033 357° North 414 476 34,000  Level Indianapolis Center
11:11AM 36.6700 -83.8100 357° North 409 471 34,000  Level Indianapolis Center
11:12AM 36.7856 -83.8169 357° North 409 471 34,000  Level Indianapolis Center
11:13AM 36.9253 -83.8247 357° North 419 482 34,000  Level Indianapolis Center
11:14AM 37.0456 -83.8325 357° North 424 488 34,000  Level Indianapolis Center
11:15AM 37.1681 -83.8411 357° North 433 498 34,000  Level Indianapolis Center
11:16AM 37.2892 -83.8500 357° North 433 498 34,000  Level Indianapolis Center
11:17AM 37.4083 -83.8567 357° North 433 498 34,000  Level Indianapolis Center
11:18AM 37.5256 -83.8639 357° North 426 490 34,000  Level Indianapolis Center
11:20AM 37.6499 -83.8623 North  Level Estimated
11:20AM 37.7597 -83.8731 North 419 482 34,000  Level Indianapolis Center
11:21AM 37.8778 -83.8653 North 419 482 34,000  Level Indianapolis Center
11:22AM 38.0167 -83.8578 North 423 487 34,000  Level Indianapolis Center
11:23AM 38.1375 -83.8511 North 427 491 34,000  Level Indianapolis Center
11:24AM 38.2606 -83.8433 North 435 501 34,000  Level Indianapolis Center
11:26AM 38.3833 -83.8356 North 436 502 34,000  Level Indianapolis Center
11:27AM 38.5058 -83.8289 North 438 504 34,000 -240 Level Indianapolis Center
11:28AM 38.6289 -83.8222 North 438 504 33,600 -660 Descending Indianapolis Center
11:29AM 38.7544 -83.8142 North 440 506 32,700 -960 Descending Indianapolis Center
11:30AM 38.8756 -83.8050 North 439 505 31,700 -960 Descending Indianapolis Center
11:31AM 38.9983 -83.7969 North 439 505 30,800 -1,080 Descending Indianapolis Center
11:32AM 39.1456 -83.7869 North 440 506 29,600 -1,080 Descending Indianapolis Center
11:33AM 39.2700 -83.7792 North 441 507 28,600 -1,080 Descending Indianapolis Center
11:34AM 39.3894 -83.7717 North 438 504 27,500 -1,080 Descending Indianapolis Center
11:35AM 39.5078 -83.7633 North 430 495 26,500 -1,020 Descending Indianapolis Center
11:36AM 39.6242 -83.7556 North 423 487 25,500 -1,020 Descending Indianapolis Center
11:37AM 39.7386 -83.7492 North 413 475 24,500 -780 Descending Indianapolis Center
11:38AM 39.8503 -83.7425 North 404 465 24,000 -480 Descending Indianapolis Center
11:39AM 39.9608 -83.7350 North 397 457 23,600 -480 Descending Indianapolis Center
11:40AM 40.0714 -83.7272 North 396 456 23,100 -300 Descending Indianapolis Center
11:41AM 40.1814 -83.7200 North 395 455 23,000 -60 Descending Indianapolis Center
11:42AM 40.2917 -83.7131 North 395 455 23,000 -540 Level Indianapolis Center
11:43AM 40.4222 -83.7056 North 395 455 21,900 -1,260 Descending Indianapolis Center
11:44AM 40.5322 -83.6986 North 395 455 20,500 -1,440 Descending Indianapolis Center
11:45AM 40.6400 -83.6906 North 394 453 19,000 -840 Descending Indianapolis Center
11:46AM 40.7417 -83.6844 North 373 429 18,900 -360 Descending Indianapolis Center
11:47AM 40.8411 -83.6794 North 363 418 18,300 -960 Descending Indianapolis Center
11:48AM 40.9389 -83.6950 353° North 354 407 17,000 -1,860 Descending Indianapolis Center
11:49AM 41.0325 -83.7150 351° North 348 400 14,500 -2,640 Descending Indianapolis Center
11:50AM 41.1261 -83.7344 351° North 339 390 11,700 -2,100 Descending Indianapolis Center
11:51AM 41.1906 -83.7472 352° North 325 374 10,900 -1,500 Descending Cleveland Center
11:52AM 41.2658 -83.7583 354° North 279 321 9,200 -1,860 Descending Cleveland Center
11:53AM 41.3378 -83.7711 352° North 266 306 7,200 -2,100 Descending Cleveland Center
11:54AM 41.4050 -83.7886 349° North 251 289 4,900 -2,040 Descending Cleveland Center
11:55AM 41.4875 -83.8106 349° North 251 289 3,100 -1,260 Descending Cleveland Center
11:56AM 41.5444 -83.7828 20° North 251 289 2,400 -420 Descending Cleveland Center
11:57AM 41.5683 -83.7156 65° Northeast 228 262 2,300 -300 Descending Cleveland Center
11:58AM 41.6053 -83.7436 330° Northwest 199 229 1,800 -540 Descending Cleveland Center
12:00PM 41.5833 -83.8000 346° North  Level FlightAware Approximate